sensor_id;sensor_type;location;lat;lon;timestamp;temperature;humidity
16513;DHT22;8369;48.030;11.598;2023-06-04T00:00:16;14.60;99.90
16513;DHT22;8369;48.030;11.598;2023-06-04T00:02:42;14.60;99.90
16513;DHT22;8369;48.030;11.598;2023-06-04T00:05:08;14.60;99.90
16513;DHT22;8369;48.030;11.598;2023-06-04T00:07:34;14.60;99.90
16513;DHT22;8369;48.030;11.598;2023-06-04T00:10:00;14.60;99.90
16513;DHT22;8369;48.030;11.598;2023-06-04T00:12:26;14.60;99.90
16513;DHT22;8369;48.030;11.598;2023-06-04T00:14:52;14.50;99.90
16513;DHT22;8369;48.030;11.598;2023-06-04T00:17:18;14.50;99.90
16513;DHT22;8369;48.030;11.598;2023-06-04T00:19:44;14.50;99.90
16513;DHT22;8369;48.030;11.598;2023-06-04T00:22:10;14.50;99.90
16513;DHT22;8369;48.030;11.598;2023-06-04T00:24:38;14.40;99.90
16513;DHT22;8369;48.030;11.598;2023-06-04T00:27:07;14.40;99.90
16513;DHT22;8369;48.030;11.598;2023-06-04T00:29:33;14.30;99.90
16513;DHT22;8369;48.030;11.598;2023-06-04T00:31:59;14.30;99.90
16513;DHT22;8369;48.030;11.598;2023-06-04T00:34:26;14.20;99.90
16513;DHT22;8369;48.030;11.598;2023-06-04T00:36:52;14.20;99.90
16513;DHT22;8369;48.030;11.598;2023-06-04T00:39:18;14.10;99.90
16513;DHT22;8369;48.030;11.598;2023-06-04T00:41:44;14.10;99.90
16513;DHT22;8369;48.030;11.598;2023-06-04T00:44:10;14.10;99.90
16513;DHT22;8369;48.030;11.598;2023-06-04T00:46:37;14.10;99.90
16513;DHT22;8369;48.030;11.598;2023-06-04T00:49:04;14.10;99.90
16513;DHT22;8369;48.030;11.598;2023-06-04T00:51:32;14.10;99.90
16513;DHT22;8369;48.030;11.598;2023-06-04T00:53:59;14.00;99.90
16513;DHT22;8369;48.030;11.598;2023-06-04T00:56:25;14.00;99.90
16513;DHT22;8369;48.030;11.598;2023-06-04T00:58:51;13.90;99.90
16513;DHT22;8369;48.030;11.598;2023-06-04T01:03:55;13.80;99.90
16513;DHT22;8369;48.030;11.598;2023-06-04T01:06:39;13.70;99.90
16513;DHT22;8369;48.030;11.598;2023-06-04T01:09:09;13.70;99.90
16513;DHT22;8369;48.030;11.598;2023-06-04T01:11:37;13.60;99.90
16513;DHT22;8369;48.030;11.598;2023-06-04T01:14:04;13.60;99.90
16513;DHT22;8369;48.030;11.598;2023-06-04T01:17:19;13.60;99.90
16513;DHT22;8369;48.030;11.598;2023-06-04T01:25:02;13.60;99.90
16513;DHT22;8369;48.030;11.598;2023-06-04T01:27:29;13.50;99.90
16513;DHT22;8369;48.030;11.598;2023-06-04T01:29:56;13.50;99.90
16513;DHT22;8369;48.030;11.598;2023-06-04T01:32:24;13.50;99.90
16513;DHT22;8369;48.030;11.598;2023-06-04T01:34:51;13.40;99.90
16513;DHT22;8369;48.030;11.598;2023-06-04T01:37:17;13.40;99.90
16513;DHT22;8369;48.030;11.598;2023-06-04T01:39:44;13.40;99.90
16513;DHT22;8369;48.030;11.598;2023-06-04T01:42:10;13.40;99.90
16513;DHT22;8369;48.030;11.598;2023-06-04T01:44:37;13.40;99.90
16513;DHT22;8369;48.030;11.598;2023-06-04T01:47:03;13.40;99.90
16513;DHT22;8369;48.030;11.598;2023-06-04T01:49:29;13.40;99.90
16513;DHT22;8369;48.030;11.598;2023-06-04T01:51:55;13.40;99.90
16513;DHT22;8369;48.030;11.598;2023-06-04T01:54:22;13.30;99.90
16513;DHT22;8369;48.030;11.598;2023-06-04T01:56:48;13.30;99.90
16513;DHT22;8369;48.030;11.598;2023-06-04T01:59:14;13.30;99.90
16513;DHT22;8369;48.030;11.598;2023-06-04T02:01:42;13.20;99.90
16513;DHT22;8369;48.030;11.598;2023-06-04T02:04:09;13.20;99.90
16513;DHT22;8369;48.030;11.598;2023-06-04T02:06:35;13.20;99.90
16513;DHT22;8369;48.030;11.598;2023-06-04T02:09:03;13.10;99.90
16513;DHT22;8369;48.030;11.598;2023-06-04T02:11:29;13.10;99.90
16513;DHT22;8369;48.030;11.598;2023-06-04T02:13:55;13.10;99.90
16513;DHT22;8369;48.030;11.598;2023-06-04T02:16:21;13.10;99.90
16513;DHT22;8369;48.030;11.598;2023-06-04T02:18:47;13.10;99.90
16513;DHT22;8369;48.030;11.598;2023-06-04T02:21:13;13.00;99.90
16513;DHT22;8369;48.030;11.598;2023-06-04T02:23:39;13.00;99.90
16513;DHT22;8369;48.030;11.598;2023-06-04T02:26:05;13.00;99.90
16513;DHT22;8369;48.030;11.598;2023-06-04T02:28:31;13.00;99.90
16513;DHT22;8369;48.030;11.598;2023-06-04T02:30:58;12.90;99.90
16513;DHT22;8369;48.030;11.598;2023-06-04T02:33:23;12.90;99.90
16513;DHT22;8369;48.030;11.598;2023-06-04T02:35:50;12.80;99.90
16513;DHT22;8369;48.030;11.598;2023-06-04T02:38:16;12.80;99.90
16513;DHT22;8369;48.030;11.598;2023-06-04T02:40:42;12.70;99.90
16513;DHT22;8369;48.030;11.598;2023-06-04T02:43:09;12.60;99.90
16513;DHT22;8369;48.030;11.598;2023-06-04T02:45:36;12.60;99.90
16513;DHT22;8369;48.030;11.598;2023-06-04T02:48:02;12.60;99.90
16513;DHT22;8369;48.030;11.598;2023-06-04T02:50:28;12.50;99.90
16513;DHT22;8369;48.030;11.598;2023-06-04T02:52:57;12.50;99.90
16513;DHT22;8369;48.030;11.598;2023-06-04T02:55:23;12.50;99.90
16513;DHT22;8369;48.030;11.598;2023-06-04T02:57:49;12.40;99.90
16513;DHT22;8369;48.030;11.598;2023-06-04T03:00:15;12.40;99.90
16513;DHT22;8369;48.030;11.598;2023-06-04T03:02:44;12.40;99.90
16513;DHT22;8369;48.030;11.598;2023-06-04T03:05:11;12.40;99.90
16513;DHT22;8369;48.030;11.598;2023-06-04T03:07:39;12.40;99.90
16513;DHT22;8369;48.030;11.598;2023-06-04T03:10:07;12.40;99.90
16513;DHT22;8369;48.030;11.598;2023-06-04T03:12:34;12.40;99.90
16513;DHT22;8369;48.030;11.598;2023-06-04T03:15:00;12.30;99.90
16513;DHT22;8369;48.030;11.598;2023-06-04T03:17:26;12.30;99.90
16513;DHT22;8369;48.030;11.598;2023-06-04T03:19:52;12.30;99.90
16513;DHT22;8369;48.030;11.598;2023-06-04T03:22:18;12.20;99.90
16513;DHT22;8369;48.030;11.598;2023-06-04T03:24:44;12.10;99.90
16513;DHT22;8369;48.030;11.598;2023-06-04T03:27:12;12.10;99.90
16513;DHT22;8369;48.030;11.598;2023-06-04T03:29:38;12.10;99.90
16513;DHT22;8369;48.030;11.598;2023-06-04T03:32:09;12.00;99.90
16513;DHT22;8369;48.030;11.598;2023-06-04T03:34:35;12.00;99.90
16513;DHT22;8369;48.030;11.598;2023-06-04T03:37:02;12.00;99.90
16513;DHT22;8369;48.030;11.598;2023-06-04T03:39:28;12.00;99.90
16513;DHT22;8369;48.030;11.598;2023-06-04T03:41:55;12.00;99.90
16513;DHT22;8369;48.030;11.598;2023-06-04T03:44:21;12.00;99.90
16513;DHT22;8369;48.030;11.598;2023-06-04T03:46:48;12.00;99.90
16513;DHT22;8369;48.030;11.598;2023-06-04T03:49:14;12.10;99.90
16513;DHT22;8369;48.030;11.598;2023-06-04T03:51:41;12.10;99.90
16513;DHT22;8369;48.030;11.598;2023-06-04T03:54:07;12.10;99.90
16513;DHT22;8369;48.030;11.598;2023-06-04T03:56:33;12.10;99.90
16513;DHT22;8369;48.030;11.598;2023-06-04T03:59:00;12.10;99.90
16513;DHT22;8369;48.030;11.598;2023-06-04T04:01:26;12.10;99.90
16513;DHT22;8369;48.030;11.598;2023-06-04T04:03:52;12.10;99.90
16513;DHT22;8369;48.030;11.598;2023-06-04T04:06:19;12.10;99.90
16513;DHT22;8369;48.030;11.598;2023-06-04T04:08:46;12.10;99.90
16513;DHT22;8369;48.030;11.598;2023-06-04T04:11:15;12.20;99.90
16513;DHT22;8369;48.030;11.598;2023-06-04T04:13:41;12.20;99.90
16513;DHT22;8369;48.030;11.598;2023-06-04T04:16:07;12.20;99.90
16513;DHT22;8369;48.030;11.598;2023-06-04T04:18:34;12.20;99.90
16513;DHT22;8369;48.030;11.598;2023-06-04T04:21:02;12.20;99.90
16513;DHT22;8369;48.030;11.598;2023-06-04T04:23:29;12.30;99.90
16513;DHT22;8369;48.030;11.598;2023-06-04T04:25:56;12.30;99.90
16513;DHT22;8369;48.030;11.598;2023-06-04T04:28:25;12.40;99.90
16513;DHT22;8369;48.030;11.598;2023-06-04T04:30:57;12.40;99.90
16513;DHT22;8369;48.030;11.598;2023-06-04T04:33:25;12.50;99.90
16513;DHT22;8369;48.030;11.598;2023-06-04T04:35:51;12.50;99.90
16513;DHT22;8369;48.030;11.598;2023-06-04T04:38:24;12.50;99.90
16513;DHT22;8369;48.030;11.598;2023-06-04T04:40:51;12.60;99.90
16513;DHT22;8369;48.030;11.598;2023-06-04T04:43:31;12.60;99.90
16513;DHT22;8369;48.030;11.598;2023-06-04T04:45:57;12.70;99.90
16513;DHT22;8369;48.030;11.598;2023-06-04T04:48:24;12.70;99.90
16513;DHT22;8369;48.030;11.598;2023-06-04T04:50:50;12.80;99.90
16513;DHT22;8369;48.030;11.598;2023-06-04T04:53:16;12.90;99.90
16513;DHT22;8369;48.030;11.598;2023-06-04T04:55:42;12.90;99.90
16513;DHT22;8369;48.030;11.598;2023-06-04T04:58:08;13.00;99.90
16513;DHT22;8369;48.030;11.598;2023-06-04T05:00:34;13.10;99.90
16513;DHT22;8369;48.030;11.598;2023-06-04T05:03:00;13.20;99.90
16513;DHT22;8369;48.030;11.598;2023-06-04T05:05:26;13.20;99.90
16513;DHT22;8369;48.030;11.598;2023-06-04T05:07:52;13.30;99.90
16513;DHT22;8369;48.030;11.598;2023-06-04T05:10:18;13.40;99.90
16513;DHT22;8369;48.030;11.598;2023-06-04T05:12:52;13.50;99.90
16513;DHT22;8369;48.030;11.598;2023-06-04T05:15:20;13.60;99.90
16513;DHT22;8369;48.030;11.598;2023-06-04T05:17:46;13.70;99.90
16513;DHT22;8369;48.030;11.598;2023-06-04T05:20:13;13.80;99.90
16513;DHT22;8369;48.030;11.598;2023-06-04T05:22:41;14.00;99.90
16513;DHT22;8369;48.030;11.598;2023-06-04T05:25:09;14.10;99.90
16513;DHT22;8369;48.030;11.598;2023-06-04T05:27:35;14.20;99.90
16513;DHT22;8369;48.030;11.598;2023-06-04T05:30:05;14.30;99.90
16513;DHT22;8369;48.030;11.598;2023-06-04T05:32:32;14.40;99.90
16513;DHT22;8369;48.030;11.598;2023-06-04T05:34:59;14.60;99.90
16513;DHT22;8369;48.030;11.598;2023-06-04T05:37:25;14.70;99.90
16513;DHT22;8369;48.030;11.598;2023-06-04T05:39:55;14.80;99.90
16513;DHT22;8369;48.030;11.598;2023-06-04T05:42:22;15.00;99.90
16513;DHT22;8369;48.030;11.598;2023-06-04T05:44:49;15.10;99.90
16513;DHT22;8369;48.030;11.598;2023-06-04T05:47:16;15.20;99.90
16513;DHT22;8369;48.030;11.598;2023-06-04T05:49:42;15.30;99.90
16513;DHT22;8369;48.030;11.598;2023-06-04T05:52:08;15.40;99.80
16513;DHT22;8369;48.030;11.598;2023-06-04T05:54:35;15.50;98.80
16513;DHT22;8369;48.030;11.598;2023-06-04T05:57:03;15.60;99.20
16513;DHT22;8369;48.030;11.598;2023-06-04T05:59:29;15.70;98.30
16513;DHT22;8369;48.030;11.598;2023-06-04T06:01:56;15.80;98.00
16513;DHT22;8369;48.030;11.598;2023-06-04T06:04:22;15.90;97.70
16513;DHT22;8369;48.030;11.598;2023-06-04T06:06:50;16.00;95.90
16513;DHT22;8369;48.030;11.598;2023-06-04T06:09:17;16.10;95.80
16513;DHT22;8369;48.030;11.598;2023-06-04T06:11:44;16.10;96.00
16513;DHT22;8369;48.030;11.598;2023-06-04T06:14:10;16.20;97.00
16513;DHT22;8369;48.030;11.598;2023-06-04T06:16:36;16.30;97.10
16513;DHT22;8369;48.030;11.598;2023-06-04T06:19:04;16.30;96.90
16513;DHT22;8369;48.030;11.598;2023-06-04T06:21:30;16.40;96.80
16513;DHT22;8369;48.030;11.598;2023-06-04T06:23:57;16.50;96.80
16513;DHT22;8369;48.030;11.598;2023-06-04T06:26:23;16.50;96.30
16513;DHT22;8369;48.030;11.598;2023-06-04T06:28:51;16.60;96.00
16513;DHT22;8369;48.030;11.598;2023-06-04T06:31:17;16.70;95.90
16513;DHT22;8369;48.030;11.598;2023-06-04T06:33:43;16.80;95.40
16513;DHT22;8369;48.030;11.598;2023-06-04T06:36:12;16.90;93.80
16513;DHT22;8369;48.030;11.598;2023-06-04T06:38:39;16.90;94.40
16513;DHT22;8369;48.030;11.598;2023-06-04T06:41:06;17.00;94.50
16513;DHT22;8369;48.030;11.598;2023-06-04T06:43:32;17.10;94.30
16513;DHT22;8369;48.030;11.598;2023-06-04T06:45:59;17.20;92.90
16513;DHT22;8369;48.030;11.598;2023-06-04T06:48:25;17.20;93.70
16513;DHT22;8369;48.030;11.598;2023-06-04T06:50:51;17.30;93.60
16513;DHT22;8369;48.030;11.598;2023-06-04T06:53:17;17.40;93.80
16513;DHT22;8369;48.030;11.598;2023-06-04T06:55:43;17.50;93.70
16513;DHT22;8369;48.030;11.598;2023-06-04T06:58:09;17.50;91.90
16513;DHT22;8369;48.030;11.598;2023-06-04T07:00:35;17.60;91.40
16513;DHT22;8369;48.030;11.598;2023-06-04T07:03:01;17.60;92.10
16513;DHT22;8369;48.030;11.598;2023-06-04T07:05:27;17.70;92.20
16513;DHT22;8369;48.030;11.598;2023-06-04T07:07:54;17.90;92.70
16513;DHT22;8369;48.030;11.598;2023-06-04T07:10:22;17.90;91.60
16513;DHT22;8369;48.030;11.598;2023-06-04T07:12:48;18.00;91.60
16513;DHT22;8369;48.030;11.598;2023-06-04T07:15:14;18.00;91.50
16513;DHT22;8369;48.030;11.598;2023-06-04T07:17:40;18.10;91.60
16513;DHT22;8369;48.030;11.598;2023-06-04T07:20:07;18.20;91.30
16513;DHT22;8369;48.030;11.598;2023-06-04T07:22:35;18.30;90.60
16513;DHT22;8369;48.030;11.598;2023-06-04T07:25:02;18.40;90.30
16513;DHT22;8369;48.030;11.598;2023-06-04T07:27:28;18.40;90.60
16513;DHT22;8369;48.030;11.598;2023-06-04T07:29:54;18.40;90.00
16513;DHT22;8369;48.030;11.598;2023-06-04T07:32:20;18.50;90.20
16513;DHT22;8369;48.030;11.598;2023-06-04T07:34:46;18.50;90.40
16513;DHT22;8369;48.030;11.598;2023-06-04T07:37:12;18.50;90.80
16513;DHT22;8369;48.030;11.598;2023-06-04T07:39:39;18.60;90.90
16513;DHT22;8369;48.030;11.598;2023-06-04T07:42:06;18.70;91.00
16513;DHT22;8369;48.030;11.598;2023-06-04T07:44:37;18.80;91.00
16513;DHT22;8369;48.030;11.598;2023-06-04T07:47:04;18.90;90.20
16513;DHT22;8369;48.030;11.598;2023-06-04T07:49:30;19.00;90.70
16513;DHT22;8369;48.030;11.598;2023-06-04T07:51:56;19.10;90.00
16513;DHT22;8369;48.030;11.598;2023-06-04T07:54:23;19.20;89.70
16513;DHT22;8369;48.030;11.598;2023-06-04T07:56:49;19.30;89.40
16513;DHT22;8369;48.030;11.598;2023-06-04T07:59:16;19.40;90.10
16513;DHT22;8369;48.030;11.598;2023-06-04T08:01:42;19.50;90.40
16513;DHT22;8369;48.030;11.598;2023-06-04T08:04:08;19.50;90.40
16513;DHT22;8369;48.030;11.598;2023-06-04T08:06:34;19.70;90.60
16513;DHT22;8369;48.030;11.598;2023-06-04T08:09:00;19.80;89.70
16513;DHT22;8369;48.030;11.598;2023-06-04T08:11:27;19.80;89.40
16513;DHT22;8369;48.030;11.598;2023-06-04T08:13:53;19.80;89.80
16513;DHT22;8369;48.030;11.598;2023-06-04T08:16:19;19.90;89.20
16513;DHT22;8369;48.030;11.598;2023-06-04T08:18:44;20.00;90.30
16513;DHT22;8369;48.030;11.598;2023-06-04T08:21:11;20.10;88.80
16513;DHT22;8369;48.030;11.598;2023-06-04T08:23:38;20.10;88.30
16513;DHT22;8369;48.030;11.598;2023-06-04T08:26:03;20.10;87.90
16513;DHT22;8369;48.030;11.598;2023-06-04T08:28:30;20.20;87.70
16513;DHT22;8369;48.030;11.598;2023-06-04T08:30:56;20.30;87.90
16513;DHT22;8369;48.030;11.598;2023-06-04T08:33:22;20.40;87.40
16513;DHT22;8369;48.030;11.598;2023-06-04T08:35:48;20.50;85.10
16513;DHT22;8369;48.030;11.598;2023-06-04T08:38:15;20.60;85.30
16513;DHT22;8369;48.030;11.598;2023-06-04T08:40:41;20.80;84.70
16513;DHT22;8369;48.030;11.598;2023-06-04T08:43:07;20.90;81.00
16513;DHT22;8369;48.030;11.598;2023-06-04T08:45:38;20.90;81.50
16513;DHT22;8369;48.030;11.598;2023-06-04T08:48:11;21.00;80.80
16513;DHT22;8369;48.030;11.598;2023-06-04T08:50:39;21.00;79.60
16513;DHT22;8369;48.030;11.598;2023-06-04T08:53:08;21.00;78.80
16513;DHT22;8369;48.030;11.598;2023-06-04T08:55:36;21.10;79.70
16513;DHT22;8369;48.030;11.598;2023-06-04T08:58:02;21.20;78.80
16513;DHT22;8369;48.030;11.598;2023-06-04T09:00:31;21.30;77.40
16513;DHT22;8369;48.030;11.598;2023-06-04T09:02:57;21.40;75.30
16513;DHT22;8369;48.030;11.598;2023-06-04T09:05:23;21.50;76.10
16513;DHT22;8369;48.030;11.598;2023-06-04T09:07:52;21.50;75.60
16513;DHT22;8369;48.030;11.598;2023-06-04T09:10:23;21.60;72.40
16513;DHT22;8369;48.030;11.598;2023-06-04T09:12:51;21.60;68.80
16513;DHT22;8369;48.030;11.598;2023-06-04T09:15:18;21.70;70.10
16513;DHT22;8369;48.030;11.598;2023-06-04T09:17:43;21.80;70.70
16513;DHT22;8369;48.030;11.598;2023-06-04T09:20:23;21.90;69.80
16513;DHT22;8369;48.030;11.598;2023-06-04T09:22:49;21.90;68.80
16513;DHT22;8369;48.030;11.598;2023-06-04T09:25:26;21.90;69.80
16513;DHT22;8369;48.030;11.598;2023-06-04T09:27:56;22.00;67.70
16513;DHT22;8369;48.030;11.598;2023-06-04T09:30:23;21.90;68.50
16513;DHT22;8369;48.030;11.598;2023-06-04T09:32:49;22.10;69.70
16513;DHT22;8369;48.030;11.598;2023-06-04T09:35:19;22.10;66.80
16513;DHT22;8369;48.030;11.598;2023-06-04T09:37:56;22.20;66.80
16513;DHT22;8369;48.030;11.598;2023-06-04T09:40:23;22.30;66.60
16513;DHT22;8369;48.030;11.598;2023-06-04T09:42:50;22.40;66.90
16513;DHT22;8369;48.030;11.598;2023-06-04T09:45:35;22.40;66.60
16513;DHT22;8369;48.030;11.598;2023-06-04T09:48:02;22.50;64.70
16513;DHT22;8369;48.030;11.598;2023-06-04T09:50:33;22.70;65.00
16513;DHT22;8369;48.030;11.598;2023-06-04T09:52:59;22.80;64.50
16513;DHT22;8369;48.030;11.598;2023-06-04T09:55:26;22.80;62.80
16513;DHT22;8369;48.030;11.598;2023-06-04T09:57:52;22.90;63.00
16513;DHT22;8369;48.030;11.598;2023-06-04T10:00:23;23.00;63.30
16513;DHT22;8369;48.030;11.598;2023-06-04T10:02:53;23.00;62.10
16513;DHT22;8369;48.030;11.598;2023-06-04T10:05:37;23.00;60.20
16513;DHT22;8369;48.030;11.598;2023-06-04T10:08:04;23.00;60.50
16513;DHT22;8369;48.030;11.598;2023-06-04T10:10:35;23.00;60.70
16513;DHT22;8369;48.030;11.598;2023-06-04T10:13:11;23.00;60.40
16513;DHT22;8369;48.030;11.598;2023-06-04T10:15:40;23.00;59.10
16513;DHT22;8369;48.030;11.598;2023-06-04T10:18:06;23.00;59.20
16513;DHT22;8369;48.030;11.598;2023-06-04T10:20:33;22.90;60.20
16513;DHT22;8369;48.030;11.598;2023-06-04T10:23:00;22.80;60.10
16513;DHT22;8369;48.030;11.598;2023-06-04T10:25:26;22.80;61.30
16513;DHT22;8369;48.030;11.598;2023-06-04T10:27:53;22.80;59.40
16513;DHT22;8369;48.030;11.598;2023-06-04T10:30:19;22.90;60.50
16513;DHT22;8369;48.030;11.598;2023-06-04T10:32:46;23.00;61.60
16513;DHT22;8369;48.030;11.598;2023-06-04T10:35:12;23.10;61.50
16513;DHT22;8369;48.030;11.598;2023-06-04T10:37:40;23.20;58.90
16513;DHT22;8369;48.030;11.598;2023-06-04T10:40:06;23.20;58.80
16513;DHT22;8369;48.030;11.598;2023-06-04T10:42:40;23.20;59.70
16513;DHT22;8369;48.030;11.598;2023-06-04T10:45:07;23.40;61.30
16513;DHT22;8369;48.030;11.598;2023-06-04T10:47:34;23.50;59.70
16513;DHT22;8369;48.030;11.598;2023-06-04T10:50:12;23.60;60.40
16513;DHT22;8369;48.030;11.598;2023-06-04T10:52:51;23.60;59.40
16513;DHT22;8369;48.030;11.598;2023-06-04T10:55:17;23.70;60.10
16513;DHT22;8369;48.030;11.598;2023-06-04T10:58:00;23.60;59.40
16513;DHT22;8369;48.030;11.598;2023-06-04T11:00:44;23.70;59.70
16513;DHT22;8369;48.030;11.598;2023-06-04T11:03:15;23.70;59.40
16513;DHT22;8369;48.030;11.598;2023-06-04T11:05:46;23.60;60.10
16513;DHT22;8369;48.030;11.598;2023-06-04T11:08:13;23.50;60.50
16513;DHT22;8369;48.030;11.598;2023-06-04T11:10:46;23.50;61.50
16513;DHT22;8369;48.030;11.598;2023-06-04T11:13:12;23.50;60.90
16513;DHT22;8369;48.030;11.598;2023-06-04T11:15:43;23.40;59.40
16513;DHT22;8369;48.030;11.598;2023-06-04T11:18:18;23.30;59.10
16513;DHT22;8369;48.030;11.598;2023-06-04T11:20:47;23.30;60.40
16513;DHT22;8369;48.030;11.598;2023-06-04T11:23:14;23.30;61.50
16513;DHT22;8369;48.030;11.598;2023-06-04T11:25:40;23.30;61.60
16513;DHT22;8369;48.030;11.598;2023-06-04T11:28:17;23.30;60.70
16513;DHT22;8369;48.030;11.598;2023-06-04T11:31:01;23.10;58.50
16513;DHT22;8369;48.030;11.598;2023-06-04T11:33:46;23.00;59.40
16513;DHT22;8369;48.030;11.598;2023-06-04T11:36:27;23.00;59.80
16513;DHT22;8369;48.030;11.598;2023-06-04T11:38:58;23.00;59.10
16513;DHT22;8369;48.030;11.598;2023-06-04T11:41:31;23.00;60.20
16513;DHT22;8369;48.030;11.598;2023-06-04T11:44:01;22.90;60.50
16513;DHT22;8369;48.030;11.598;2023-06-04T11:46:28;22.90;60.70
16513;DHT22;8369;48.030;11.598;2023-06-04T11:48:55;22.90;61.20
16513;DHT22;8369;48.030;11.598;2023-06-04T11:51:21;22.90;60.50
16513;DHT22;8369;48.030;11.598;2023-06-04T11:53:48;23.00;60.20
16513;DHT22;8369;48.030;11.598;2023-06-04T11:56:15;23.00;59.20
16513;DHT22;8369;48.030;11.598;2023-06-04T11:58:42;23.10;59.70
16513;DHT22;8369;48.030;11.598;2023-06-04T12:01:09;23.30;59.90
16513;DHT22;8369;48.030;11.598;2023-06-04T12:03:42;23.50;59.20
16513;DHT22;8369;48.030;11.598;2023-06-04T12:06:16;23.60;58.20
16513;DHT22;8369;48.030;11.598;2023-06-04T12:08:52;23.80;58.80
16513;DHT22;8369;48.030;11.598;2023-06-04T12:11:30;23.80;58.40
16513;DHT22;8369;48.030;11.598;2023-06-04T12:13:58;23.90;57.50
16513;DHT22;8369;48.030;11.598;2023-06-04T12:16:25;24.00;57.70
16513;DHT22;8369;48.030;11.598;2023-06-04T12:18:52;24.10;57.20
16513;DHT22;8369;48.030;11.598;2023-06-04T12:21:23;24.10;57.40
16513;DHT22;8369;48.030;11.598;2023-06-04T12:24:13;24.10;57.50
16513;DHT22;8369;48.030;11.598;2023-06-04T12:26:40;24.10;57.50
16513;DHT22;8369;48.030;11.598;2023-06-04T12:29:11;24.10;56.50
16513;DHT22;8369;48.030;11.598;2023-06-04T12:31:43;24.10;56.00
16513;DHT22;8369;48.030;11.598;2023-06-04T12:34:13;24.10;57.00
16513;DHT22;8369;48.030;11.598;2023-06-04T12:36:38;24.10;56.00
16513;DHT22;8369;48.030;11.598;2023-06-04T12:39:04;24.20;55.80
16513;DHT22;8369;48.030;11.598;2023-06-04T12:41:34;24.20;56.20
16513;DHT22;8369;48.030;11.598;2023-06-04T12:44:00;24.20;55.50
16513;DHT22;8369;48.030;11.598;2023-06-04T12:46:29;24.20;56.50
16513;DHT22;8369;48.030;11.598;2023-06-04T12:48:55;24.30;56.70
16513;DHT22;8369;48.030;11.598;2023-06-04T12:51:22;24.30;56.70
16513;DHT22;8369;48.030;11.598;2023-06-04T12:53:48;24.30;55.40
16513;DHT22;8369;48.030;11.598;2023-06-04T12:56:14;24.20;54.70
16513;DHT22;8369;48.030;11.598;2023-06-04T12:58:42;24.30;55.80
16513;DHT22;8369;48.030;11.598;2023-06-04T13:01:09;24.30;55.70
16513;DHT22;8369;48.030;11.598;2023-06-04T13:03:40;24.30;56.10
16513;DHT22;8369;48.030;11.598;2023-06-04T13:06:05;24.40;56.00
16513;DHT22;8369;48.030;11.598;2023-06-04T13:08:32;24.40;56.20
16513;DHT22;8369;48.030;11.598;2023-06-04T13:10:59;24.50;56.70
16513;DHT22;8369;48.030;11.598;2023-06-04T13:13:25;24.70;56.00
16513;DHT22;8369;48.030;11.598;2023-06-04T13:15:51;24.80;54.80
16513;DHT22;8369;48.030;11.598;2023-06-04T13:18:17;24.80;54.70
16513;DHT22;8369;48.030;11.598;2023-06-04T13:20:43;24.70;55.20
16513;DHT22;8369;48.030;11.598;2023-06-04T13:23:09;24.70;55.70
16513;DHT22;8369;48.030;11.598;2023-06-04T13:25:35;24.70;56.20
16513;DHT22;8369;48.030;11.598;2023-06-04T13:28:03;24.80;55.20
16513;DHT22;8369;48.030;11.598;2023-06-04T13:30:29;24.80;56.00
16513;DHT22;8369;48.030;11.598;2023-06-04T13:32:56;24.70;55.10
16513;DHT22;8369;48.030;11.598;2023-06-04T13:35:25;24.50;55.00
16513;DHT22;8369;48.030;11.598;2023-06-04T13:37:51;24.40;55.70
16513;DHT22;8369;48.030;11.598;2023-06-04T13:40:17;24.40;55.50
16513;DHT22;8369;48.030;11.598;2023-06-04T13:42:43;24.50;56.00
16513;DHT22;8369;48.030;11.598;2023-06-04T13:45:09;24.40;56.80
16513;DHT22;8369;48.030;11.598;2023-06-04T13:47:35;24.50;57.10
16513;DHT22;8369;48.030;11.598;2023-06-04T13:50:02;24.40;56.50
16513;DHT22;8369;48.030;11.598;2023-06-04T13:52:29;24.30;56.10
16513;DHT22;8369;48.030;11.598;2023-06-04T13:54:56;24.30;56.00
16513;DHT22;8369;48.030;11.598;2023-06-04T13:57:22;24.10;56.00
16513;DHT22;8369;48.030;11.598;2023-06-04T13:59:49;24.00;56.20
16513;DHT22;8369;48.030;11.598;2023-06-04T14:02:15;23.90;56.70
16513;DHT22;8369;48.030;11.598;2023-06-04T14:04:41;23.80;56.00
16513;DHT22;8369;48.030;11.598;2023-06-04T14:07:07;23.80;57.10
16513;DHT22;8369;48.030;11.598;2023-06-04T14:09:34;23.90;57.50
16513;DHT22;8369;48.030;11.598;2023-06-04T14:12:02;23.90;57.80
16513;DHT22;8369;48.030;11.598;2023-06-04T14:14:28;23.80;56.80
16513;DHT22;8369;48.030;11.598;2023-06-04T14:17:05;23.80;57.50
16513;DHT22;8369;48.030;11.598;2023-06-04T14:19:35;23.80;58.20
16513;DHT22;8369;48.030;11.598;2023-06-04T14:22:02;23.80;57.20
16513;DHT22;8369;48.030;11.598;2023-06-04T14:24:29;23.70;56.80
16513;DHT22;8369;48.030;11.598;2023-06-04T14:26:56;23.70;57.20
16513;DHT22;8369;48.030;11.598;2023-06-04T14:29:22;23.80;57.40
16513;DHT22;8369;48.030;11.598;2023-06-04T14:31:49;23.70;56.40
16513;DHT22;8369;48.030;11.598;2023-06-04T14:34:15;23.80;57.00
16513;DHT22;8369;48.030;11.598;2023-06-04T14:36:42;23.70;56.00
16513;DHT22;8369;48.030;11.598;2023-06-04T14:39:08;23.70;55.20
16513;DHT22;8369;48.030;11.598;2023-06-04T14:41:34;23.70;56.20
16513;DHT22;8369;48.030;11.598;2023-06-04T14:44:01;23.50;57.00
16513;DHT22;8369;48.030;11.598;2023-06-04T14:46:27;23.50;57.40
16513;DHT22;8369;48.030;11.598;2023-06-04T14:48:53;23.50;57.80
16513;DHT22;8369;48.030;11.598;2023-06-04T14:51:20;23.50;56.70
16513;DHT22;8369;48.030;11.598;2023-06-04T14:53:50;23.50;57.40
16513;DHT22;8369;48.030;11.598;2023-06-04T14:56:19;23.50;56.20
16513;DHT22;8369;48.030;11.598;2023-06-04T14:58:45;23.50;57.00
16513;DHT22;8369;48.030;11.598;2023-06-04T15:01:12;23.60;57.20
16513;DHT22;8369;48.030;11.598;2023-06-04T15:03:38;23.70;56.70
16513;DHT22;8369;48.030;11.598;2023-06-04T15:06:06;23.60;56.20
16513;DHT22;8369;48.030;11.598;2023-06-04T15:08:32;23.70;56.10
16513;DHT22;8369;48.030;11.598;2023-06-04T15:10:58;23.70;56.20
16513;DHT22;8369;48.030;11.598;2023-06-04T15:13:24;23.70;55.80
16513;DHT22;8369;48.030;11.598;2023-06-04T15:15:50;23.70;55.70
16513;DHT22;8369;48.030;11.598;2023-06-04T15:18:17;23.70;56.40
16513;DHT22;8369;48.030;11.598;2023-06-04T15:20:43;23.80;56.20
16513;DHT22;8369;48.030;11.598;2023-06-04T15:23:09;23.80;56.10
16513;DHT22;8369;48.030;11.598;2023-06-04T15:25:35;23.80;56.00
16513;DHT22;8369;48.030;11.598;2023-06-04T15:28:05;23.80;54.80
16513;DHT22;8369;48.030;11.598;2023-06-04T15:30:32;23.70;55.10
16513;DHT22;8369;48.030;11.598;2023-06-04T15:32:58;23.70;55.70
16513;DHT22;8369;48.030;11.598;2023-06-04T15:35:27;23.60;55.80
16513;DHT22;8369;48.030;11.598;2023-06-04T15:37:53;23.50;55.80
16513;DHT22;8369;48.030;11.598;2023-06-04T15:40:19;23.40;55.80